Terminal Aerodrome Forecast
Issued by NWS

Home | Current Version | Previous Version | Graphics & Text | Print | Product List | Glossary On
Versions: 1 2 3 4 5 6 7 8 9 10 11 12 13 14 15 16 17
448
FTUS43 KMPX 241120
TAFRWF
TAF
KRWF 241120Z 2412/2512 11010KT 4SM BR OVC004
     FM241600 14014G20KT P6SM BKN008 OVC014
     FM241800 15014G22KT P6SM SCT020 BKN035
     FM242200 16014G22KT P6SM VCTS SCT025CB OVC040
      TEMPO 2423/2503 2SM +SHRA BR OVC015
     FM250400 16009KT 6SM -SHRA BR SCT020 OVC050
     FM250900 23007KT P6SM SCT050=

USA.gov is the U.S. government's official web portal to all federal, state and local government web resources and services.